Time;durP1;ratioP1;P1;durP2;ratioP2;P2;SDS_P1;SDS_P2;PMS_P1;PMS_P2;Temp;Humidity;BMP_temperature;BMP_pressure;BME280_temperature;BME280_humidity;BME280_pressure;Samples;Min_cycle;Max_cycle;Signal;HPM_P1;HPM_P2
2022/06/19 00:00:42;;;;;;;4.80;4.00;;;;;;;15.16;83.28;97836.59;6283370;28;20775;-45
2022/06/19 00:03:51;;;;;;;6.60;4.20;;;;;;;15.18;83.17;97842.59;6281734;28;20328;-45
2022/06/19 00:06:56;;;;;;;4.37;3.80;;;;;;;15.20;83.16;97843.28;6280982;28;20600;-46
2022/06/19 00:09:59;;;;;;;3.93;3.63;;;;;;;15.17;83.41;97840.94;6281797;28;20319;-46
2022/06/19 00:13:01;;;;;;;4.50;3.97;;;;;;;15.10;84.16;97830.88;6277064;28;20323;-46
2022/06/19 00:16:04;;;;;;;3.90;3.57;;;;;;;15.02;84.27;97830.78;6280979;28;20226;-46
2022/06/19 00:19:06;;;;;;;4.23;3.90;;;;;;;14.97;84.47;97827.72;6281574;28;20234;-46
2022/06/19 00:22:09;;;;;;;4.90;4.50;;;;;;;14.96;84.70;97830.56;6246474;28;20345;-46
2022/06/19 00:25:11;;;;;;;4.67;3.73;;;;;;;14.95;84.80;97826.22;6278195;28;20316;-46
2022/06/19 00:28:14;;;;;;;4.67;4.27;;;;;;;14.92;84.56;97818.53;6280757;28;20375;-47
2022/06/19 00:31:16;;;;;;;5.17;4.77;;;;;;;14.86;84.87;97822.63;6281215;28;20242;-47
2022/06/19 00:34:19;;;;;;;6.20;3.97;;;;;;;14.83;84.61;97817.59;6273779;28;20231;-46
2022/06/19 00:37:21;;;;;;;4.60;4.20;;;;;;;14.86;85.19;97817.31;6265167;28;20608;-45
2022/06/19 00:40:29;;;;;;;5.03;4.60;;;;;;;14.86;85.11;97816.47;6280831;28;20226;-45
2022/06/19 00:43:51;;;;;;;4.53;3.93;;;;;;;14.80;85.61;97817.03;6285477;28;21400;-46
2022/06/19 00:47:14;;;;;;;4.30;3.90;;;;;;;14.82;85.53;97809.75;6280547;28;20818;-45
2022/06/19 00:50:25;;;;;;;4.90;4.40;;;;;;;14.82;85.55;97796.47;6281582;28;20234;-45
2022/06/19 00:53:32;;;;;;;6.40;4.10;;;;;;;14.85;85.35;97793.53;6263078;28;20385;-46
2022/06/19 00:56:35;;;;;;;4.57;4.17;;;;;;;14.80;85.71;97795.78;6280413;28;20607;-46
2022/06/19 00:59:40;;;;;;;6.47;4.50;;;;;;;14.75;85.68;97793.56;6259182;28;20238;-45
2022/06/19 01:02:43;;;;;;;4.83;4.40;;;;;;;14.74;85.92;97795.41;6276004;28;20300;-45
2022/06/19 01:05:47;;;;;;;5.60;4.13;;;;;;;14.73;86.12;97787.56;6281088;28;20223;-46
2022/06/19 01:08:51;;;;;;;4.90;4.17;;;;;;;14.73;86.08;97790.22;6279356;28;20235;-45
2022/06/19 01:11:53;;;;;;;5.70;4.30;;;;;;;14.68;86.28;97787.16;6280135;28;20222;-45
2022/06/19 01:15:01;;;;;;;4.40;4.10;;;;;;;14.64;86.24;97785.78;6241281;28;20694;-46
2022/06/19 01:18:06;;;;;;;4.77;4.30;;;;;;;14.58;86.20;97779.22;6278795;28;20692;-45
2022/06/19 01:21:16;;;;;;;4.53;4.13;;;;;;;14.55;86.69;97789.31;6263036;28;20711;-47
2022/06/19 01:24:24;;;;;;;4.63;4.23;;;;;;;14.54;86.30;97777.03;6230467;28;20675;-46
2022/06/19 01:30:53;;;;;;;6.00;4.60;;;;;;;14.48;86.68;97780.25;6279609;28;20242;-45
2022/06/19 01:34:26;;;;;;;4.87;4.43;;;;;;;14.45;86.68;97777.91;6278236;28;20231;-46
2022/06/19 01:37:29;;;;;;;4.37;3.83;;;;;;;14.40;87.01;97776.50;6255634;28;20238;-47
2022/06/19 01:40:34;;;;;;;4.40;4.00;;;;;;;14.38;87.23;97780.22;6254915;28;20723;-45
2022/06/19 01:43:36;;;;;;;5.63;4.47;;;;;;;14.34;87.24;97773.56;6268441;28;20297;-46
2022/06/19 01:46:38;;;;;;;6.07;4.90;;;;;;;14.34;87.64;97777.06;6269252;28;20317;-45
2022/06/19 01:49:45;;;;;;;4.80;4.37;;;;;;;14.38;87.33;97770.44;6255336;28;20231;-45
2022/06/19 01:52:50;;;;;;;5.10;4.57;;;;;;;14.37;87.89;97775.94;6254862;28;20234;-45
2022/06/19 01:55:53;;;;;;;4.60;4.20;;;;;;;14.34;87.90;97773.56;6254176;28;20292;-45
2022/06/19 01:58:59;;;;;;;4.57;4.17;;;;;;;14.31;87.60;97765.88;6254461;28;20826;-45
2022/06/19 02:02:04;;;;;;;4.60;4.27;;;;;;;14.30;87.65;97762.38;6255542;28;20258;-46
2022/06/19 02:05:07;;;;;;;4.30;4.00;;;;;;;14.30;87.77;97766.84;6253585;28;20231;-45
2022/06/19 02:08:12;;;;;;;6.03;4.87;;;;;;;14.24;87.84;97751.50;6254494;28;20284;-45
2022/06/19 02:11:16;;;;;;;4.97;4.50;;;;;;;14.22;88.01;97748.16;6254179;28;20315;-45
2022/06/19 02:14:20;;;;;;;5.73;4.10;;;;;;;14.22;88.46;97742.84;6263292;28;20710;-45
2022/06/19 02:17:29;;;;;;;4.83;4.23;;;;;;;14.20;88.21;97747.47;6259463;28;20235;-45
2022/06/19 02:20:31;;;;;;;4.57;4.17;;;;;;;14.17;88.33;97743.31;6253439;28;20235;-46
2022/06/19 02:23:36;;;;;;;4.63;4.23;;;;;;;14.17;88.33;97739.81;6253647;28;20357;-45
2022/06/19 02:26:39;;;;;;;4.50;4.20;;;;;;;14.17;87.99;97738.00;6253926;28;21127;-45
2022/06/19 02:29:43;;;;;;;4.43;4.03;;;;;;;14.13;88.72;97736.59;6253908;28;20239;-45
2022/06/19 02:32:48;;;;;;;5.30;4.80;;;;;;;14.14;88.60;97737.44;6253473;28;20238;-45
2022/06/19 02:35:50;;;;;;;5.77;4.70;;;;;;;14.12;88.52;97734.06;6253218;28;20709;-46
2022/06/19 02:38:52;;;;;;;6.30;4.30;;;;;;;14.06;88.96;97732.84;6269123;28;20673;-46
2022/06/19 02:42:10;;;;;;;4.60;4.20;;;;;;;14.06;89.18;97726.69;6277675;28;20256;-46
2022/06/19 02:45:14;;;;;;;5.60;5.10;;;;;;;14.08;88.93;97724.72;6277830;28;20226;-45
2022/06/19 02:48:23;;;;;;;4.73;4.33;;;;;;;14.13;88.94;97719.81;6277638;28;20215;-45
2022/06/19 02:51:25;;;;;;;4.80;4.50;;;;;;;14.10;88.99;97720.94;6277704;28;20242;-45
2022/06/19 02:54:27;;;;;;;5.10;4.70;;;;;;;14.06;88.68;97718.75;6279851;28;20253;-47
2022/06/19 02:57:29;;;;;;;4.40;4.10;;;;;;;13.98;89.15;97714.97;6277813;28;20260;-45
2022/06/19 03:00:31;;;;;;;4.50;4.10;;;;;;;14.00;88.72;97717.47;6277932;28;20245;-45
2022/06/19 03:03:36;;;;;;;4.50;4.03;;;;;;;13.99;88.36;97715.81;6277312;28;20357;-45
2022/06/19 03:06:38;;;;;;;4.40;4.10;;;;;;;14.01;88.39;97712.03;6277047;28;20305;-45
2022/06/19 03:09:40;;;;;;;5.40;4.30;;;;;;;14.05;88.50;97709.94;6277054;28;20226;-46
2022/06/19 03:12:43;;;;;;;6.10;3.90;;;;;;;14.02;87.91;97700.44;6277604;28;20299;-45
2022/06/19 03:15:45;;;;;;;4.53;4.07;;;;;;;14.03;88.16;97698.63;6277970;28;20230;-46
2022/06/19 03:18:48;;;;;;;4.63;4.23;;;;;;;14.07;87.79;97707.16;6278025;28;20230;-45
2022/06/19 03:21:50;;;;;;;4.37;3.80;;;;;;;14.01;87.43;97701.41;6249888;28;20231;-47
2022/06/19 03:24:52;;;;;;;7.93;3.90;;;;;;;13.97;87.78;97693.91;6277981;28;20687;-45
2022/06/19 03:27:54;;;;;;;4.60;4.20;;;;;;;13.95;87.90;97696.69;6277269;28;20234;-45
2022/06/19 03:30:56;;;;;;;5.77;4.70;;;;;;;13.97;87.92;97696.56;6277454;28;20709;-45
2022/06/19 03:33:58;;;;;;;4.80;3.93;;;;;;;13.98;87.99;97687.59;6269659;28;20277;-46
2022/06/19 03:37:00;;;;;;;4.00;3.70;;;;;;;14.00;87.68;97682.97;6262678;28;20644;-46
2022/06/19 03:40:03;;;;;;;4.37;3.93;;;;;;;14.07;88.13;97685.91;6278226;28;20254;-45
2022/06/19 03:43:05;;;;;;;6.30;3.73;;;;;;;14.14;87.59;97687.00;6281861;28;20329;-47
2022/06/19 03:46:15;;;;;;;4.20;3.90;;;;;;;14.21;87.32;97677.47;6281628;28;20279;-45
2022/06/19 03:49:17;;;;;;;4.23;3.83;;;;;;;14.23;87.12;97676.34;6281184;28;20804;-46
2022/06/19 03:52:20;;;;;;;4.10;3.80;;;;;;;14.19;87.42;97677.59;6281482;28;20854;-46
2022/06/19 03:55:22;;;;;;;3.63;3.33;;;;;;;14.16;86.86;97675.28;6281072;28;20590;-46
2022/06/19 03:58:24;;;;;;;3.93;3.63;;;;;;;14.11;86.90;97679.31;6281573;28;20238;-46
2022/06/19 04:01:52;;;;;;;4.60;3.60;;;;;;;14.08;87.45;97669.81;6280240;28;20316;-45
2022/06/19 04:04:54;;;;;;;4.20;3.80;;;;;;;14.08;87.27;97669.81;6260348;28;20364;-46
2022/06/19 04:07:57;;;;;;;4.70;4.30;;;;;;;14.12;87.49;97663.25;6281675;28;20323;-46
2022/06/19 04:10:59;;;;;;;6.60;4.27;;;;;;;14.15;87.32;97662.13;6280725;28;20237;-45
2022/06/19 04:14:01;;;;;;;4.73;4.27;;;;;;;14.17;87.52;97665.50;6281024;28;20685;-45
2022/06/19 04:17:05;;;;;;;5.43;4.13;;;;;;;14.19;87.44;97653.72;6280652;28;20710;-45
2022/06/19 04:20:09;;;;;;;4.10;3.80;;;;;;;14.21;87.61;97653.56;6280933;28;20309;-45
2022/06/19 04:23:11;;;;;;;4.50;4.10;;;;;;;14.25;87.40;97658.47;6274982;28;20261;-46
2022/06/19 04:26:15;;;;;;;4.43;4.10;;;;;;;14.31;87.37;97651.72;6279866;28;20275;-45
2022/06/19 04:29:17;;;;;;;4.10;3.80;;;;;;;14.34;87.79;97652.28;6280898;28;20230;-45
2022/06/19 04:32:19;;;;;;;4.67;3.90;;;;;;;14.38;87.45;97652.78;6280963;28;20573;-46
2022/06/19 04:35:21;;;;;;;4.70;4.30;;;;;;;14.45;87.49;97653.09;6274397;28;20256;-45
2022/06/19 04:38:23;;;;;;;4.83;4.00;;;;;;;14.47;87.94;97654.63;6279704;28;20734;-46
2022/06/19 04:41:32;;;;;;;4.90;4.50;;;;;;;14.52;87.78;97660.31;6280447;28;20230;-45
2022/06/19 04:44:34;;;;;;;4.03;3.63;;;;;;;14.57;87.84;97655.41;6279922;28;20701;-46
2022/06/19 04:47:37;;;;;;;4.23;3.87;;;;;;;14.63;87.41;97660.09;6279667;28;20305;-45
2022/06/19 04:50:40;;;;;;;4.27;3.97;;;;;;;14.66;87.88;97653.66;6280117;28;20655;-46
2022/06/19 04:53:42;;;;;;;4.20;3.80;;;;;;;14.70;87.93;97647.91;6279107;28;20272;-47
2022/06/19 04:56:46;;;;;;;4.37;3.97;;;;;;;14.76;87.88;97641.16;6280918;28;20257;-46
2022/06/19 04:59:48;;;;;;;4.90;4.40;;;;;;;14.81;87.79;97638.03;6280059;28;20226;-46
2022/06/19 05:02:50;;;;;;;6.53;3.87;;;;;;;14.86;87.99;97633.13;6283449;28;20244;-46
2022/06/19 05:05:56;;;;;;;4.67;4.03;;;;;;;14.93;87.62;97637.66;6285019;28;20245;-46
2022/06/19 05:08:58;;;;;;;5.10;4.60;;;;;;;14.97;87.72;97636.38;6279665;28;20761;-45
2022/06/19 05:12:00;;;;;;;4.43;4.03;;;;;;;15.05;87.90;97640.94;6278336;28;20215;-45
2022/06/19 05:15:03;;;;;;;3.97;3.60;;;;;;;15.12;87.75;97632.19;6279277;28;20214;-48
2022/06/19 05:18:05;;;;;;;4.83;4.30;;;;;;;15.22;87.62;97631.28;6279008;28;20230;-45
2022/06/19 05:21:09;;;;;;;4.30;4.00;;;;;;;15.31;87.39;97631.19;6270380;28;20237;-46
2022/06/19 05:24:11;;;;;;;4.27;3.97;;;;;;;15.41;87.25;97629.28;6266495;28;20242;-47
2022/06/19 05:27:14;;;;;;;4.07;3.77;;;;;;;15.46;86.97;97627.00;6279730;28;20213;-45
2022/06/19 05:30:16;;;;;;;4.63;4.00;;;;;;;15.52;86.98;97633.53;6279058;28;20218;-46
2022/06/19 05:33:18;;;;;;;4.07;3.70;;;;;;;15.54;86.90;97634.25;6261513;28;20897;-46
2022/06/19 05:36:21;;;;;;;4.30;4.00;;;;;;;15.60;86.82;97633.59;6256914;28;21223;-46
2022/06/19 05:39:23;;;;;;;4.20;3.80;;;;;;;15.66;86.99;97634.81;6278321;28;20313;-45
2022/06/19 05:42:26;;;;;;;3.90;3.60;;;;;;;15.73;86.98;97635.88;6279383;28;20226;-45
2022/06/19 05:45:28;;;;;;;3.77;3.50;;;;;;;15.80;86.74;97635.06;6278210;28;20234;-45
2022/06/19 05:48:31;;;;;;;4.67;4.27;;;;;;;15.90;86.85;97629.63;6261122;28;20579;-46
2022/06/19 05:51:34;;;;;;;3.73;3.43;;;;;;;15.97;86.50;97636.00;6279466;28;20775;-46
2022/06/19 05:54:36;;;;;;;4.10;3.70;;;;;;;16.08;86.55;97629.56;6278367;28;20234;-45
2022/06/19 05:57:38;;;;;;;4.37;4.00;;;;;;;16.19;86.37;97629.28;6278671;28;20230;-48
2022/06/19 06:00:40;;;;;;;3.63;3.33;;;;;;;16.29;86.24;97631.81;6278385;28;20242;-46
2022/06/19 06:03:42;;;;;;;3.70;3.40;;;;;;;16.39;85.82;97636.03;6278424;28;20686;-46
2022/06/19 06:06:44;;;;;;;3.60;3.30;;;;;;;16.48;85.66;97634.22;6278364;28;20233;-46
2022/06/19 06:09:46;;;;;;;4.97;3.37;;;;;;;16.59;85.57;97626.78;6278075;28;20367;-45
2022/06/19 06:12:48;;;;;;;3.93;3.57;;;;;;;16.76;84.94;97625.06;6271451;28;20241;-46
2022/06/19 06:15:50;;;;;;;3.20;2.90;;;;;;;16.89;84.46;97627.22;6277942;28;20396;-45
2022/06/19 06:18:52;;;;;;;3.10;2.90;;;;;;;17.12;83.61;97635.44;6278048;28;20250;-46
2022/06/19 06:21:54;;;;;;;3.77;3.47;;;;;;;17.29;83.27;97626.44;6268749;28;20819;-45
2022/06/19 06:24:56;;;;;;;3.10;2.90;;;;;;;17.57;82.14;97624.25;6278007;28;20226;-45
2022/06/19 06:27:58;;;;;;;4.53;3.00;;;;;;;17.79;81.23;97631.59;6256267;28;20748;-45
2022/06/19 06:31:00;;;;;;;4.27;2.77;;;;;;;17.96;80.40;97621.72;6277121;28;20671;-45
2022/06/19 06:34:04;;;;;;;4.37;2.60;;;;;;;18.26;79.18;97614.78;6241336;28;20238;-46
2022/06/19 06:37:06;;;;;;;2.50;2.30;;;;;;;18.67;77.07;97618.13;6269517;28;20242;-46
2022/06/19 06:40:09;;;;;;;2.83;2.53;;;;;;;18.99;75.79;97617.09;6279219;28;20229;-46
2022/06/19 06:43:11;;;;;;;2.73;2.53;;;;;;;19.32;74.68;97607.81;6277204;28;20785;-45
2022/06/19 06:46:20;;;;;;;2.50;2.30;;;;;;;19.72;73.08;97609.34;6277570;28;20260;-46
2022/06/19 06:49:22;;;;;;;2.50;2.30;;;;;;;20.13;71.01;97614.28;6278380;28;20245;-45
2022/06/19 06:52:24;;;;;;;2.23;2.03;;;;;;;20.38;66.97;97604.94;6276854;28;20234;-46
2022/06/19 06:55:26;;;;;;;1.87;1.70;;;;;;;20.93;64.57;97609.75;6278442;28;20767;-45
2022/06/19 06:58:28;;;;;;;2.10;2.00;;;;;;;21.30;63.80;97615.91;6277356;28;20694;-46
2022/06/19 07:01:32;;;;;;;2.00;1.90;;;;;;;21.59;63.08;97610.38;6277784;28;20725;-46
2022/06/19 07:05:06;;;;;;;2.80;2.20;;;;;;;21.89;61.89;97600.28;6274800;28;20230;-46
2022/06/19 07:08:08;;;;;;;2.00;1.90;;;;;;;22.15;60.07;97596.16;6277160;28;20237;-46
2022/06/19 07:11:35;;;;;;;2.27;2.03;;;;;;;22.55;54.36;97600.69;6259374;28;20286;-46
2022/06/19 07:14:37;;;;;;;2.37;2.03;;;;;;;22.79;57.95;97602.88;6276932;28;20640;-46
2022/06/19 07:17:39;;;;;;;2.07;1.97;;;;;;;23.14;54.72;97597.38;6281649;28;20724;-49
2022/06/19 07:20:41;;;;;;;2.87;1.90;;;;;;;23.48;55.68;97597.19;6278061;28;20254;-46
2022/06/19 07:23:44;;;;;;;1.90;1.80;;;;;;;23.73;56.23;97589.38;6259588;28;20313;-49
2022/06/19 07:26:46;;;;;;;1.73;1.63;;;;;;;23.95;55.87;97584.56;6281904;28;20226;-48
2022/06/19 07:29:48;;;;;;;2.00;1.90;;;;;;;24.23;54.49;97577.06;6281571;28;20260;-46
2022/06/19 07:32:50;;;;;;;2.07;1.83;;;;;;;24.62;53.88;97573.38;6281170;28;20732;-46
2022/06/19 07:35:52;;;;;;;2.00;1.77;;;;;;;24.79;52.58;97576.41;6249511;28;20284;-46
2022/06/19 07:38:54;;;;;;;1.80;1.70;;;;;;;24.88;52.63;97575.13;6256854;28;20238;-48
2022/06/19 07:41:56;;;;;;;3.47;1.90;;;;;;;25.19;51.26;97577.03;6256742;28;20578;-46
2022/06/19 07:44:58;;;;;;;2.27;2.07;;;;;;;25.41;50.97;97574.81;6239512;28;20373;-45
2022/06/19 07:51:21;;;;;;;2.45;1.85;;;;;;;25.88;51.27;97576.09;6253523;28;20232;-46
2022/06/19 07:54:29;;;;;;;2.40;1.80;;;;;;;26.26;50.36;97551.53;6232638;28;20243;-44
2022/06/19 07:57:31;;;;;;;1.98;1.80;;;;;;;26.64;49.29;97545.91;6257112;28;20364;-49
2022/06/19 08:00:35;;;;;;;2.58;1.65;;;;;;;26.89;49.26;97545.78;6255852;28;20242;-46
2022/06/19 08:03:37;;;;;;;1.83;1.48;;;;;;;27.32;48.81;97547.47;6239536;28;20370;-46
2022/06/19 08:06:39;;;;;;;3.85;1.63;;;;;;;27.25;47.81;97538.63;6255621;28;20334;-46
2022/06/19 08:09:42;;;;;;;2.17;1.75;;;;;;;27.62;48.27;97540.13;6257489;28;20268;-47
2022/06/19 08:12:46;;;;;;;2.15;1.77;;;;;;;27.64;44.15;97515.47;6249332;28;20608;-45
2022/06/19 08:15:50;;;;;;;1.85;1.67;;;;;;;28.10;45.95;97522.75;6237594;28;20239;-46
2022/06/19 08:18:52;;;;;;;1.98;1.77;;;;;;;28.58;45.90;97515.09;6256419;28;20246;-50
2022/06/19 08:21:54;;;;;;;2.95;1.45;;;;;;;28.87;43.82;97517.84;6242563;28;20235;-46
2022/06/19 08:24:56;;;;;;;1.95;1.50;;;;;;;29.07;44.82;97515.47;6255066;28;20258;-50
2022/06/19 08:27:58;;;;;;;3.08;1.80;;;;;;;29.06;44.48;97522.00;6256228;28;20260;-46
2022/06/19 08:31:00;;;;;;;5.38;1.70;;;;;;;28.92;44.06;97504.34;6256441;28;20280;-47
2022/06/19 08:34:03;;;;;;;3.00;1.60;;;;;;;29.11;43.95;97494.91;6235506;28;20228;-46
2022/06/19 08:37:09;;;;;;;2.50;1.45;;;;;;;29.16;43.69;97494.16;6265701;28;20234;-46
2022/06/19 08:40:26;;;;;;;1.77;1.65;;;;;;;29.29;41.86;97486.50;6280565;28;20316;-47
2022/06/19 08:44:12;;;;;;;2.55;2.00;;;;;;;29.32;44.28;97488.75;6273903;28;20682;-46
2022/06/19 08:47:32;;;;;;;1.88;1.77;;;;;;;29.47;41.45;97493.63;6217497;28;20710;-47
2022/06/19 08:50:40;;;;;;;1.52;1.40;;;;;;;29.93;41.42;97491.59;6280972;28;20712;-46
2022/06/19 08:53:53;;;;;;;2.35;1.65;;;;;;;30.48;40.50;97501.56;6286095;28;20701;-47
2022/06/19 08:57:27;;;;;;;2.08;1.65;;;;;;;30.47;38.79;97495.31;6280026;28;20887;-46
2022/06/19 09:00:48;;;;;;;1.77;1.55;;;;;;;30.57;40.21;97492.72;6279807;28;20222;-46
2022/06/19 09:07:53;;;;;;;1.40;1.30;;;;;;;31.00;36.18;97499.19;6279852;28;20272;-46
2022/06/19 09:11:17;;;;;;;2.55;1.85;;;;;;;31.23;36.15;97498.06;6279905;28;20242;-46
2022/06/19 09:15:07;;;;;;;4.32;1.58;;;;;;;30.97;38.63;97488.78;6247587;28;21443;-46
2022/06/19 09:18:40;;;;;;;3.58;1.60;;;;;;;30.93;34.87;97474.03;6271039;28;20226;-47
2022/06/19 09:22:32;;;;;;;2.67;1.55;;;;;;;31.53;34.75;97473.75;6273818;28;20222;-46
2022/06/19 09:25:44;;;;;;;1.38;1.27;;;;;;;32.03;36.20;97469.72;6254675;28;20226;-48
2022/06/19 09:29:03;;;;;;;2.70;1.63;;;;;;;31.83;34.66;97464.97;6278974;28;20245;-46
2022/06/19 09:32:11;;;;;;;3.17;1.52;;;;;;;31.45;34.32;97452.38;6279841;28;20717;-44
2022/06/19 09:35:37;;;;;;;1.90;1.70;;;;;;;31.83;36.14;97459.50;6270521;28;20254;-45
2022/06/19 09:38:59;;;;;;;3.13;1.60;;;;;;;31.76;32.51;97445.25;6278430;28;20771;-44
2022/06/19 09:42:16;;;;;;;2.95;1.55;;;;;;;32.08;35.51;97437.78;6278186;28;20686;-45
2022/06/19 09:45:21;;;;;;;2.63;1.50;;;;;;;32.57;35.26;97449.19;6278410;28;20195;-45
2022/06/19 09:48:38;;;;;;;1.92;1.70;;;;;;;32.94;36.19;97442.72;6279173;28;20227;-44
2022/06/19 09:51:56;;;;;;;2.38;1.55;;;;;;;32.69;33.98;97437.19;6279086;28;20249;-46
2022/06/19 09:55:07;;;;;;;4.78;1.90;;;;;;;32.67;33.88;97442.91;6278730;28;20258;-46
2022/06/19 09:58:40;;;;;;;2.78;1.67;;;;;;;33.01;35.58;97432.34;6278035;28;20771;-46
2022/06/19 10:02:01;;;;;;;3.05;1.58;;;;;;;33.14;33.65;97428.25;6279306;28;20226;-45
2022/06/19 10:05:35;;;;;;;1.70;1.60;;;;;;;32.92;33.89;97425.78;6278570;28;20234;-45
2022/06/19 10:08:48;;;;;;;2.58;1.70;;;;;;;32.58;31.37;97415.28;6278562;28;20241;-44
2022/06/19 10:11:59;;;;;;;5.03;2.25;;;;;;;32.74;33.83;97404.44;6278174;28;20258;-46
2022/06/19 10:15:29;;;;;;;5.10;1.92;;;;;;;32.95;31.67;97411.53;6277402;28;20253;-45
2022/06/19 10:18:40;;;;;;;4.10;1.88;;;;;;;32.99;30.71;97416.19;6278142;28;20788;-47
2022/06/19 10:22:15;;;;;;;3.03;1.90;;;;;;;32.74;32.97;97418.09;6252173;28;20707;-44
2022/06/19 10:25:27;;;;;;;1.92;1.70;;;;;;;33.47;31.77;97410.44;6270837;28;20582;-45
2022/06/19 10:28:49;;;;;;;4.75;2.00;;;;;;;33.12;30.20;97412.09;6277079;28;20231;-45
2022/06/19 10:32:06;;;;;;;2.25;1.90;;;;;;;33.22;30.88;97403.06;6278266;28;20323;-45
2022/06/19 10:35:21;;;;;;;6.60;2.55;;;;;;;33.85;31.60;97393.38;6263504;28;20240;-45
2022/06/19 10:38:59;;;;;;;2.20;2.00;;;;;;;34.03;30.53;97384.56;6268925;28;20236;-44
2022/06/19 10:42:14;;;;;;;4.22;2.00;;;;;;;34.24;31.62;97382.53;6276565;28;20304;-45
2022/06/19 10:45:43;;;;;;;4.15;1.90;;;;;;;33.95;30.32;97371.44;6277761;28;20226;-45
2022/06/19 10:48:55;;;;;;;5.32;1.90;;;;;;;33.78;30.84;97364.66;6277709;28;20707;-45
2022/06/19 10:52:29;;;;;;;3.63;2.10;;;;;;;33.90;30.59;97356.97;6277677;28;20698;-44
2022/06/19 10:55:44;;;;;;;2.38;1.85;;;;;;;34.38;31.18;97358.09;6277629;28;20793;-45
2022/06/19 10:58:46;;;;;;;2.15;1.95;;;;;;;34.44;30.92;97359.69;6277984;28;20321;-45
2022/06/19 11:05:48;;;;;;;3.35;2.10;;;;;;;33.19;30.71;97360.66;6278287;28;20687;-45
2022/06/19 11:08:59;;;;;;;3.85;2.05;;;;;;;33.50;31.10;97355.16;6282827;28;20662;-45
2022/06/19 11:12:13;;;;;;;2.00;1.80;;;;;;;33.62;30.57;97351.03;6276444;28;20733;-46
2022/06/19 11:15:26;;;;;;;7.47;2.30;;;;;;;33.92;29.02;97344.63;6277153;28;20229;-46
2022/06/19 11:18:28;;;;;;;4.13;2.20;;;;;;;34.20;28.52;97359.56;6276924;28;20242;-45
2022/06/19 11:21:35;;;;;;;3.33;2.03;;;;;;;33.70;30.58;97355.09;6258267;28;20662;-45
2022/06/19 11:24:40;;;;;;;5.75;1.95;;;;;;;34.54;28.72;97358.84;6278064;28;20234;-48
2022/06/19 11:27:57;;;;;;;2.55;1.98;;;;;;;34.60;28.12;97346.72;6276936;28;20311;-48
2022/06/19 11:31:11;;;;;;;4.70;2.05;;;;;;;34.07;28.58;97336.31;6278522;28;20603;-46
2022/06/19 11:37:56;;;;;;;3.67;2.15;;;;;;;35.02;27.87;97333.25;6274510;28;20219;-46
2022/06/19 11:40:58;;;;;;;5.55;2.10;;;;;;;35.01;28.62;97326.13;6276861;28;20235;-45
2022/06/19 11:44:15;;;;;;;4.18;2.00;;;;;;;35.24;27.14;97329.19;6276611;28;20606;-47
2022/06/19 11:47:18;;;;;;;4.78;1.63;;;;;;;35.10;27.98;97327.13;6276978;28;20230;-48
2022/06/19 11:50:25;;;;;;;6.45;2.00;;;;;;;35.44;27.20;97327.06;6276681;28;20241;-46
2022/06/19 11:53:41;;;;;;;4.18;1.70;;;;;;;34.71;26.26;97327.16;6277452;28;20316;-46
2022/06/19 11:56:43;;;;;;;4.38;2.10;;;;;;;34.73;27.62;97327.69;6276075;28;20768;-49
2022/06/19 11:59:45;;;;;;;3.75;2.05;;;;;;;34.86;26.71;97325.41;6276921;28;20292;-46
2022/06/19 12:02:54;;;;;;;4.45;2.42;;;;;;;35.51;28.36;97313.81;6278576;28;20234;-46
2022/06/19 12:06:01;;;;;;;5.70;2.30;;;;;;;36.10;27.31;97319.97;6280616;28;20227;-45
2022/06/19 12:09:07;;;;;;;4.85;1.80;;;;;;;36.26;26.85;97307.66;6280866;28;20272;-46
2022/06/19 12:12:18;;;;;;;6.47;2.08;;;;;;;36.73;26.44;97314.13;6279173;28;20234;-46
2022/06/19 12:15:32;;;;;;;6.57;2.25;;;;;;;37.33;25.47;97305.94;6280928;28;20222;-46
2022/06/19 12:18:35;;;;;;;7.85;2.25;;;;;;;36.94;24.65;97307.13;6254041;28;20687;-46
2022/06/19 12:22:06;;;;;;;7.38;2.00;;;;;;;36.20;24.72;97301.44;6258236;28;20297;-45
2022/06/19 12:25:21;;;;;;;8.52;2.08;;;;;;;36.82;24.75;97299.38;6270388;28;20284;-48
2022/06/19 12:28:50;;;;;;;6.95;1.95;;;;;;;35.70;25.60;97302.88;6281233;28;20317;-45
2022/06/19 12:31:56;;;;;;;6.13;2.22;;;;;;;35.08;26.27;97292.84;6280804;28;20308;-48
2022/06/19 12:35:03;;;;;;;7.55;2.45;;;;;;;34.56;26.75;97282.59;6280174;28;20292;-48
2022/06/19 12:38:11;;;;;;;7.68;2.65;;;;;;;34.46;26.74;97294.44;6280901;28;20257;-50
2022/06/19 12:41:36;;;;;;;4.53;2.13;;;;;;;34.68;27.26;97302.22;6280275;28;20231;-49
2022/06/19 12:44:48;;;;;;;3.85;2.10;;;;;;;35.05;26.05;97293.41;6279873;28;20218;-48
2022/06/19 12:48:07;;;;;;;8.02;2.40;;;;;;;35.64;26.44;97286.75;6280035;28;20230;-46
2022/06/19 12:51:36;;;;;;;4.28;1.88;;;;;;;36.05;25.97;97295.28;6263148;28;20218;-48
2022/06/19 12:55:22;;;;;;;3.75;2.20;;;;;;;36.25;25.62;97292.28;6279968;28;20222;-49
2022/06/19 12:58:47;;;;;;;6.22;2.00;;;;;;;36.41;25.43;97284.63;6268563;28;20598;-50
2022/06/19 13:02:14;;;;;;;3.78;2.08;;;;;;;36.60;24.20;97282.66;6280234;28;20237;-49
2022/06/19 13:05:41;;;;;;;5.57;2.22;;;;;;;36.36;25.54;97285.50;6280352;28;20265;-48
2022/06/19 13:08:49;;;;;;;5.05;2.40;;;;;;;36.51;25.13;97277.03;6280246;28;20246;-53
2022/06/19 13:11:59;;;;;;;5.03;2.20;;;;;;;37.01;24.66;97266.28;6282810;28;20227;-49
2022/06/19 13:15:07;;;;;;;3.95;2.15;;;;;;;37.56;24.37;97260.81;6230106;28;20236;-50
2022/06/19 13:18:20;;;;;;;3.22;1.83;;;;;;;37.33;24.20;97267.38;6279315;28;20289;-51
2022/06/19 13:22:04;;;;;;;5.65;2.22;;;;;;;36.64;24.52;97266.38;6258754;28;20228;-52
2022/06/19 13:25:25;;;;;;;4.82;2.47;;;;;;;36.62;24.95;97255.69;6229553;28;20235;-53
2022/06/19 13:28:31;;;;;;;4.30;2.10;;;;;;;36.41;24.76;97257.13;6230454;28;20331;-52
2022/06/19 13:31:42;;;;;;;4.72;1.95;;;;;;;36.65;24.31;97251.50;6274991;28;20686;-50
2022/06/19 13:35:07;;;;;;;6.78;2.15;;;;;;;37.47;24.54;97244.22;6264683;28;20238;-52
2022/06/19 13:38:31;;;;;;;2.47;2.13;;;;;;;38.04;24.07;97234.44;6279891;28;20829;-51
2022/06/19 13:42:06;;;;;;;5.82;2.05;;;;;;;38.35;22.81;97231.78;6261095;28;20230;-48
2022/06/19 13:45:20;;;;;;;4.22;1.90;;;;;;;38.43;23.25;97219.22;6256504;28;20231;-50
2022/06/19 13:48:34;;;;;;;5.03;1.98;;;;;;;38.89;23.29;97212.53;6279567;28;20310;-48
2022/06/19 13:52:03;;;;;;;4.90;2.17;;;;;;;39.45;23.00;97229.19;6278480;28;20226;-49
2022/06/19 13:55:26;;;;;;;1.63;1.50;;;;;;;39.86;21.99;97225.25;6278326;28;20696;-51
2022/06/19 13:58:59;;;;;;;3.53;2.05;;;;;;;39.94;21.68;97226.38;6278355;28;20678;-48
2022/06/19 14:02:35;;;;;;;4.85;1.75;;;;;;;40.17;21.38;97225.91;6278697;28;20717;-45
2022/06/19 14:05:40;;;;;;;3.85;2.20;;;;;;;40.78;19.88;97209.28;6261183;28;20233;-50
2022/06/19 14:08:53;;;;;;;4.55;2.53;;;;;;;41.73;19.12;97206.13;6261264;28;20327;-49
2022/06/19 14:12:04;;;;;;;3.38;2.10;;;;;;;42.08;19.09;97210.28;6268252;28;20239;-49
2022/06/19 14:15:30;;;;;;;3.88;1.98;;;;;;;43.21;17.98;97204.44;6265546;28;20610;-52
2022/06/19 14:18:45;;;;;;;5.15;2.30;;;;;;;44.39;17.42;97193.84;6265669;28;20659;-47
2022/06/19 14:22:08;;;;;;;1.98;1.60;;;;;;;46.03;16.40;97198.78;6276441;28;20223;-49
2022/06/19 14:25:36;;;;;;;6.88;1.90;;;;;;;46.70;14.16;97185.44;6276848;28;20230;-47
2022/06/19 14:28:50;;;;;;;4.07;2.00;;;;;;;47.13;14.25;97184.22;6222356;28;20225;-50
2022/06/19 14:31:55;;;;;;;6.90;2.25;;;;;;;46.56;14.58;97185.13;6276887;28;20788;-47
2022/06/19 14:35:03;;;;;;;5.45;2.05;;;;;;;46.67;14.97;97174.19;6272402;28;20253;-48
2022/06/19 14:38:08;;;;;;;4.93;2.03;;;;;;;46.78;14.78;97178.81;6274449;28;20263;-47
2022/06/19 14:41:17;;;;;;;8.13;2.05;;;;;;;47.94;14.32;97178.28;6252782;28;20227;-49
2022/06/19 14:44:26;;;;;;;5.43;2.00;;;;;;;47.33;13.99;97176.53;6248665;28;20227;-49
2022/06/19 14:47:28;;;;;;;5.05;1.88;;;;;;;46.90;13.93;97172.22;6253612;28;20602;-46
2022/06/19 14:51:29;;;;;;;4.68;1.88;;;;;;;47.56;13.52;97165.34;6262620;28;20234;-47
2022/06/19 14:54:49;;;;;;;2.80;1.80;;;;;;;46.97;14.32;97169.53;6113630;29;20364;-46
2022/06/19 14:57:57;;;;;;;2.28;1.83;;;;;;;47.76;13.96;97168.84;6087530;28;20236;-47
2022/06/19 15:01:02;;;;;;;3.88;2.10;;;;;;;48.65;13.42;97157.56;6121709;29;20231;-50
2022/06/19 15:04:18;;;;;;;6.63;1.70;;;;;;;49.06;14.99;97161.19;6128931;29;20230;-48
2022/06/19 15:07:26;;;;;;;3.90;1.88;;;;;;;49.50;14.72;97152.75;6128273;29;20239;-50
2022/06/19 15:10:35;;;;;;;2.83;1.95;;;;;;;49.29;15.02;97152.59;6129411;29;20305;-48